KPCD/PCD METAR and TAF weather

Enter ICAO airport designator
Station Type Date Time Source
KPCD METAR 2021/08/01 16:55 UTC NOAA

KPCD 011655Z AUTO 00000KT 10SM CLR 25/19 A3005 RMK AO2 T02540188


Station Type Date Time Source
KPCD Decoded METAR 2021/08/01 16:55 UTC NOAA

Station name not available
Aug 01, 2021 - 12:55 PM EDT / 2021.08.01 1655 UTC
Wind: Calm:0
Visibility: 10 mile(s):0
Sky conditions: clear
Temperature: 77.7 F (25.4 C)
Dew Point: 65.8 F (18.8 C)
Relative Humidity: 66%
Pressure (altimeter): 30.05 in. Hg (1017 hPa)
ob: KPCD 011655Z AUTO 00000KT 10SM CLR 25/19 A3005 RMK AO2 T02540188
cycle: 17

Station Type Date Time Source
KPCD TAF UTC NOAA

Error!

Example: see airport list